Time;durP1;ratioP1;P1;durP2;ratioP2;P2;SDS_P1;SDS_P2;PMS_P1;PMS_P2;Temp;Humidity;BMP_temperature;BMP_pressure;BME280_temperature;BME280_humidity;BME280_pressure;Samples;Min_cycle;Max_cycle;Signal;HPM_P1;HPM_P2
2022/12/13 00:00:37;;;;;;;20.37;15.10;;;-3.20;99.90;;;;;;5025006;28;20191;-63
2022/12/13 00:03:02;;;;;;;28.17;16.60;;;-3.30;99.90;;;;;;5028289;28;20792;-64
2022/12/13 00:05:28;;;;;;;23.03;15.10;;;-3.70;99.90;;;;;;5023232;28;20223;-63
2022/12/13 00:07:54;;;;;;;28.50;17.10;;;-3.30;99.90;;;;;;5024043;28;20216;-64
2022/12/13 00:10:19;;;;;;;22.57;15.90;;;-3.40;99.90;;;;;;5028372;28;20175;-64
2022/12/13 00:12:45;;;;;;;25.67;15.90;;;-3.40;99.90;;;;;;5029349;28;20210;-64
2022/12/13 00:15:11;;;;;;;23.07;16.03;;;-3.30;99.90;;;;;;5028768;28;20202;-63
2022/12/13 00:17:36;;;;;;;26.50;16.13;;;-3.40;99.90;;;;;;5022800;28;20533;-63
2022/12/13 00:20:03;;;;;;;23.40;16.87;;;-3.20;99.90;;;;;;5027935;28;20221;-65
2022/12/13 00:22:29;;;;;;;24.92;16.73;;;-3.40;99.90;;;;;;5027840;28;20477;-64
2022/12/13 00:24:55;;;;;;;22.47;15.57;;;-3.20;99.90;;;;;;5027344;28;20210;-64
2022/12/13 00:27:22;;;;;;;27.52;16.83;;;-3.10;99.90;;;;;;5028470;28;20238;-64
2022/12/13 00:29:47;;;;;;;24.30;16.98;;;-3.30;99.90;;;;;;5025561;28;20222;-64
2022/12/13 00:32:13;;;;;;;21.20;15.80;;;-3.50;99.90;;;;;;5026320;28;20167;-63
2022/12/13 00:34:40;;;;;;;21.43;16.20;;;-3.40;99.90;;;;;;5029704;28;20214;-63
2022/12/13 00:37:05;;;;;;;23.88;15.23;;;-3.50;99.90;;;;;;5029785;28;20433;-64
2022/12/13 00:39:31;;;;;;;22.40;15.97;;;-3.40;99.90;;;;;;5029147;28;20248;-63
2022/12/13 00:41:57;;;;;;;25.87;16.53;;;-3.40;99.90;;;;;;5030285;28;20186;-63
2022/12/13 00:44:23;;;;;;;25.40;16.40;;;-3.20;99.90;;;;;;5032915;28;20183;-63
2022/12/13 00:46:50;;;;;;;22.67;16.00;;;-3.30;99.90;;;;;;5029356;28;20445;-62
2022/12/13 00:49:16;;;;;;;23.45;16.63;;;-3.30;99.90;;;;;;5030714;28;20687;-63
2022/12/13 00:51:42;;;;;;;27.43;17.10;;;-3.30;99.90;;;;;;5031406;28;20284;-64
2022/12/13 00:54:09;;;;;;;21.98;15.73;;;-3.50;99.90;;;;;;5028427;28;20686;-65
2022/12/13 00:56:36;;;;;;;20.95;14.75;;;-3.60;99.90;;;;;;5026129;28;20198;-65
2022/12/13 00:59:02;;;;;;;24.08;15.85;;;-3.50;99.90;;;;;;5026366;28;20690;-63
2022/12/13 01:01:31;;;;;;;23.77;16.80;;;-3.50;99.90;;;;;;5027964;28;20252;-63
2022/12/13 01:03:59;;;;;;;25.13;16.83;;;-3.50;99.90;;;;;;5031146;28;20187;-63
2022/12/13 01:06:41;;;;;;;28.60;16.42;;;-3.70;99.90;;;;;;5031184;28;20222;-63
2022/12/13 01:09:17;;;;;;;25.70;15.45;;;-4.30;99.90;;;;;;5021966;28;20614;-63
2022/12/13 01:11:44;;;;;;;22.58;14.60;;;-3.50;99.90;;;;;;5027143;28;20241;-63
2022/12/13 01:14:09;;;;;;;25.40;16.05;;;-3.40;99.90;;;;;;5028118;28;20937;-63
2022/12/13 01:16:35;;;;;;;24.23;15.83;;;-3.50;99.90;;;;;;5031469;28;20593;-64
2022/12/13 01:19:00;;;;;;;25.00;17.07;;;-3.70;99.90;;;;;;5031445;28;20269;-63
2022/12/13 01:21:26;;;;;;;25.67;17.43;;;-3.10;99.90;;;;;;5029322;28;20539;-63
2022/12/13 01:23:52;;;;;;;25.60;16.67;;;-3.60;99.90;;;;;;5029069;28;20183;-63
2022/12/13 01:26:20;;;;;;;23.37;15.20;;;-3.70;99.90;;;;;;5030502;28;20955;-65
2022/12/13 01:28:46;;;;;;;25.40;16.08;;;-3.20;99.90;;;;;;5029023;28;20297;-65
2022/12/13 01:31:15;;;;;;;30.13;18.75;;;-3.90;99.90;;;;;;5025024;28;20187;-65
2022/12/13 01:33:41;;;;;;;21.92;14.70;;;-3.80;99.90;;;;;;5030786;28;20182;-64
2022/12/13 01:36:10;;;;;;;25.38;17.05;;;-3.60;99.90;;;;;;5031934;28;20229;-64
2022/12/13 01:38:36;;;;;;;27.65;17.63;;;-4.00;99.90;;;;;;5027579;28;20661;-62
2022/12/13 01:41:02;;;;;;;23.10;16.80;;;-4.60;99.90;;;;;;5033043;28;20193;-64
2022/12/13 01:43:29;;;;;;;24.97;17.80;;;-3.80;99.90;;;;;;5033709;28;20192;-64
2022/12/13 01:45:55;;;;;;;21.02;15.68;;;-3.50;99.90;;;;;;5025755;28;20552;-64
2022/12/13 01:48:27;;;;;;;20.63;15.67;;;-3.60;99.90;;;;;;5026272;28;20289;-64
2022/12/13 01:50:57;;;;;;;25.13;16.23;;;-3.80;99.90;;;;;;5028116;28;20182;-64
2022/12/13 01:53:27;;;;;;;24.02;15.57;;;-3.60;99.90;;;;;;5029369;28;20180;-64
2022/12/13 01:55:59;;;;;;;24.92;15.35;;;-3.80;99.90;;;;;;5030421;28;20285;-64
2022/12/13 01:58:25;;;;;;;21.60;15.05;;;-4.20;99.90;;;;;;5023055;28;20191;-64
2022/12/13 02:00:51;;;;;;;28.50;17.35;;;-3.70;99.90;;;;;;5027588;28;20225;-64
2022/12/13 02:03:19;;;;;;;27.48;17.45;;;-3.80;99.90;;;;;;5028799;28;20198;-64
2022/12/13 02:06:09;;;;;;;28.20;17.73;;;-3.80;99.90;;;;;;5026305;28;20218;-64
2022/12/13 02:08:37;;;;;;;23.63;16.83;;;-4.00;99.90;;;;;;5025122;28;20210;-62
2022/12/13 02:11:04;;;;;;;25.05;16.35;;;-3.50;99.90;;;;;;5027435;28;20190;-64
2022/12/13 02:13:29;;;;;;;27.67;17.23;;;-3.90;99.90;;;;;;5027989;28;20198;-64
2022/12/13 02:16:14;;;;;;;27.37;17.67;;;-4.10;99.90;;;;;;5031619;28;20726;-62
2022/12/13 02:18:55;;;;;;;26.45;16.58;;;-3.50;99.90;;;;;;5028334;28;20641;-64
2022/12/13 02:21:41;;;;;;;25.67;17.20;;;-4.20;99.90;;;;;;5023881;28;20182;-62
2022/12/13 02:24:37;;;;;;;26.08;16.60;;;-4.00;99.90;;;;;;5016690;28;20273;-64
2022/12/13 02:27:14;;;;;;;25.50;16.50;;;-3.80;99.90;;;;;;5023590;28;20186;-65
2022/12/13 02:29:54;;;;;;;25.75;16.83;;;-4.00;99.90;;;;;;5030026;28;20206;-64
2022/12/13 02:33:05;;;;;;;23.80;16.25;;;-4.00;99.90;;;;;;5028612;28;20206;-64
2022/12/13 02:36:01;;;;;;;30.17;19.63;;;-4.10;99.90;;;;;;5029053;28;20214;-64
2022/12/13 02:38:53;;;;;;;28.88;19.13;;;-3.90;99.90;;;;;;5016599;28;20209;-64
2022/12/13 02:41:39;;;;;;;25.13;17.35;;;-4.70;99.90;;;;;;5028362;28;20186;-64
2022/12/13 02:44:30;;;;;;;24.70;16.25;;;-4.10;99.90;;;;;;5019955;28;20738;-64
2022/12/13 02:47:19;;;;;;;26.08;16.75;;;-3.40;99.90;;;;;;5026259;28;20227;-65
2022/12/13 02:49:49;;;;;;;22.30;15.68;;;-3.90;99.90;;;;;;5029109;28;20325;-64
2022/12/13 02:52:18;;;;;;;24.00;16.23;;;-3.90;99.90;;;;;;5026008;28;20194;-64
2022/12/13 02:54:44;;;;;;;23.98;15.05;;;-3.90;99.90;;;;;;5024069;28;20301;-64
2022/12/13 02:57:32;;;;;;;25.53;16.00;;;-4.20;99.90;;;;;;5024734;28;20791;-64
2022/12/13 03:00:09;;;;;;;29.02;18.23;;;-4.20;99.90;;;;;;5017083;28;20186;-64
2022/12/13 03:02:50;;;;;;;29.35;18.80;;;-4.20;99.90;;;;;;5028924;28;20194;-64
2022/12/13 03:08:30;;;;;;;29.58;19.30;;;-4.30;99.90;;;;;;5021798;28;20584;-64
2022/12/13 03:11:07;;;;;;;27.33;18.13;;;-4.70;99.90;;;;;;5024482;28;20178;-64
2022/12/13 03:13:51;;;;;;;27.33;18.40;;;-4.10;99.90;;;;;;5027046;28;20182;-64
2022/12/13 03:16:23;;;;;;;25.83;17.17;;;-4.20;99.90;;;;;;5023781;28;20194;-64
2022/12/13 03:18:54;;;;;;;27.25;17.70;;;-4.30;99.90;;;;;;5027466;28;20186;-64
2022/12/13 03:21:19;;;;;;;30.75;17.67;;;-3.90;99.90;;;;;;5024437;28;20198;-64
2022/12/13 03:23:46;;;;;;;26.77;19.70;;;-4.30;99.90;;;;;;5027067;28;20313;-64
2022/12/13 03:26:16;;;;;;;29.00;20.27;;;-4.40;99.90;;;;;;5027351;28;20469;-64
2022/12/13 03:28:42;;;;;;;27.48;17.67;;;-4.40;99.90;;;;;;5026814;28;20297;-64
2022/12/13 03:31:08;;;;;;;28.70;19.53;;;-4.50;99.90;;;;;;5027530;28;20786;-64
2022/12/13 03:33:34;;;;;;;27.50;16.23;;;-4.30;99.90;;;;;;5024254;28;20814;-64
2022/12/13 03:36:01;;;;;;;25.20;17.48;;;-4.50;99.90;;;;;;5028882;28;20202;-64
2022/12/13 03:38:27;;;;;;;25.13;16.63;;;-4.20;99.90;;;;;;5024744;28;20657;-64
2022/12/13 03:41:00;;;;;;;22.10;15.30;;;-4.50;99.90;;;;;;5024154;28;20186;-63
2022/12/13 03:43:26;;;;;;;29.83;17.60;;;-4.60;99.90;;;;;;5028427;28;20224;-63
2022/12/13 03:45:53;;;;;;;27.02;16.88;;;-4.60;99.90;;;;;;5027213;28;20202;-63
2022/12/13 03:48:19;;;;;;;23.98;15.90;;;-4.30;99.90;;;;;;5029201;28;20229;-63
2022/12/13 03:50:46;;;;;;;26.92;16.80;;;-4.40;99.90;;;;;;5029761;28;20260;-64
2022/12/13 03:53:12;;;;;;;24.63;14.77;;;-4.30;99.90;;;;;;5026390;28;20579;-63
2022/12/13 03:55:37;;;;;;;27.05;16.65;;;-4.30;99.90;;;;;;5021947;28;20951;-64
2022/12/13 03:58:03;;;;;;;25.00;15.20;;;-4.30;99.90;;;;;;5028216;28;20702;-63
2022/12/13 04:00:29;;;;;;;26.87;15.70;;;-3.90;99.90;;;;;;5026328;28;20218;-63
2022/12/13 04:02:55;;;;;;;27.13;16.50;;;-4.30;99.90;;;;;;5020466;28;20455;-63
2022/12/13 04:05:20;;;;;;;26.67;16.70;;;-4.60;99.90;;;;;;5022350;28;20830;-63
2022/12/13 04:07:47;;;;;;;21.87;14.67;;;-4.60;99.90;;;;;;5025718;28;20437;-64
2022/12/13 04:10:13;;;;;;;25.27;16.95;;;-4.50;99.90;;;;;;5028828;28;20290;-64
2022/12/13 04:15:22;;;;;;;22.42;15.48;;;-4.70;99.90;;;;;;5025728;28;20232;-64
2022/12/13 04:17:48;;;;;;;25.67;16.77;;;-4.50;99.90;;;;;;5029520;28;20262;-63
2022/12/13 04:20:14;;;;;;;24.00;15.53;;;-4.60;99.90;;;;;;5030305;28;20644;-63
2022/12/13 04:22:40;;;;;;;23.23;15.00;;;-4.70;99.90;;;;;;5031197;28;20440;-63
2022/12/13 04:25:06;;;;;;;22.60;16.57;;;-4.20;99.90;;;;;;5028930;28;20843;-63
2022/12/13 04:27:32;;;;;;;22.20;15.50;;;-4.80;99.90;;;;;;5032967;28;20224;-63
2022/12/13 04:29:57;;;;;;;23.47;15.57;;;-4.80;99.90;;;;;;5029900;28;20842;-63
2022/12/13 04:32:23;;;;;;;23.70;16.77;;;-4.90;99.90;;;;;;5023898;28;21029;-63
2022/12/13 04:34:49;;;;;;;22.77;15.53;;;-4.00;99.90;;;;;;5028121;28;20229;-63
2022/12/13 04:37:14;;;;;;;24.27;15.00;;;-4.60;99.90;;;;;;5036392;28;20178;-63
2022/12/13 04:39:40;;;;;;;24.77;15.63;;;-4.70;99.90;;;;;;5029680;28;20627;-63
2022/12/13 04:42:06;;;;;;;24.47;17.20;;;-4.80;99.90;;;;;;5022427;28;20186;-63
2022/12/13 04:44:32;;;;;;;22.53;15.67;;;-4.00;99.90;;;;;;5025125;28;20514;-63
2022/12/13 04:46:58;;;;;;;21.55;15.85;;;-4.90;99.90;;;;;;5028872;28;20248;-63
2022/12/13 04:49:24;;;;;;;23.43;14.90;;;-4.50;99.90;;;;;;5032241;28;20219;-63
2022/12/13 04:51:49;;;;;;;21.40;15.20;;;-4.50;99.90;;;;;;5023686;28;20195;-62
2022/12/13 04:54:15;;;;;;;24.27;14.27;;;-4.80;99.90;;;;;;5025312;28;20657;-63
2022/12/13 04:56:41;;;;;;;26.10;15.07;;;-4.60;99.90;;;;;;5031675;28;20198;-63
2022/12/13 04:59:06;;;;;;;21.83;14.20;;;-4.70;99.90;;;;;;5030410;28;20191;-62
2022/12/13 05:01:33;;;;;;;25.90;14.97;;;-5.10;99.90;;;;;;5028376;28;20691;-63
2022/12/13 05:04:00;;;;;;;29.52;16.67;;;-4.50;99.90;;;;;;5028050;28;20266;-63
2022/12/13 05:06:26;;;;;;;22.23;14.32;;;-4.60;99.90;;;;;;5027733;28;20230;-63
2022/12/13 05:08:51;;;;;;;25.77;15.13;;;-4.80;99.90;;;;;;5032714;28;20233;-63
2022/12/13 05:11:17;;;;;;;26.07;17.17;;;-4.80;99.90;;;;;;5028925;28;20183;-63
2022/12/13 05:13:43;;;;;;;22.90;15.43;;;-4.60;99.90;;;;;;5021712;28;20183;-64
2022/12/13 05:16:08;;;;;;;22.77;15.53;;;-4.70;99.90;;;;;;5018919;28;20209;-63
2022/12/13 05:18:35;;;;;;;26.43;15.30;;;-4.70;99.90;;;;;;5017043;28;20191;-63
2022/12/13 05:21:06;;;;;;;25.98;15.45;;;-4.60;99.90;;;;;;5026015;28;20539;-63
2022/12/13 05:23:32;;;;;;;23.40;16.65;;;-4.70;99.90;;;;;;5029789;28;20205;-63
2022/12/13 05:25:59;;;;;;;38.75;21.15;;;-4.60;99.90;;;;;;5033042;28;20210;-63
2022/12/13 05:28:27;;;;;;;31.00;17.27;;;-4.60;99.90;;;;;;5024023;28;20218;-64
2022/12/13 05:30:54;;;;;;;24.10;15.77;;;-4.60;99.90;;;;;;5025931;28;20197;-65
2022/12/13 05:33:20;;;;;;;22.60;15.40;;;-4.30;99.90;;;;;;5027203;28;20182;-64
2022/12/13 05:35:46;;;;;;;21.70;14.07;;;-4.70;99.90;;;;;;5020836;28;20224;-63
2022/12/13 05:38:11;;;;;;;28.25;17.02;;;-4.90;99.90;;;;;;5023710;28;20179;-63
2022/12/13 05:40:37;;;;;;;22.57;15.17;;;-4.60;99.90;;;;;;5023812;28;20186;-64
2022/12/13 05:43:03;;;;;;;25.27;15.63;;;-4.50;99.90;;;;;;5020262;28;20899;-64
2022/12/13 05:45:30;;;;;;;21.80;14.93;;;-3.90;99.90;;;;;;5024678;28;20460;-63
2022/12/13 05:47:56;;;;;;;26.45;15.95;;;-4.50;99.90;;;;;;5023047;28;20186;-64
2022/12/13 05:50:21;;;;;;;27.67;15.30;;;-4.50;99.90;;;;;;5026769;28;20214;-64
2022/12/13 05:52:47;;;;;;;23.63;15.57;;;-4.50;99.90;;;;;;5026387;28;20451;-64
2022/12/13 05:55:13;;;;;;;20.13;14.10;;;-4.60;99.90;;;;;;5023561;28;20483;-64
2022/12/13 05:57:39;;;;;;;23.90;14.87;;;-5.10;99.90;;;;;;5023113;28;20183;-64
2022/12/13 06:00:07;;;;;;;22.87;16.20;;;-4.70;99.90;;;;;;5033976;28;20685;-64
2022/12/13 06:02:37;;;;;;;23.27;15.15;;;-4.60;99.90;;;;;;5024467;28;20449;-64
2022/12/13 06:05:04;;;;;;;25.92;15.13;;;-4.80;99.90;;;;;;5024159;28;20303;-65
2022/12/13 06:07:30;;;;;;;20.85;14.48;;;-4.60;99.90;;;;;;5021153;28;20225;-67
2022/12/13 06:09:56;;;;;;;24.70;14.10;;;-4.60;99.90;;;;;;5020975;28;20218;-67
2022/12/13 06:12:21;;;;;;;21.77;15.10;;;-4.50;99.90;;;;;;5018092;28;20588;-67
2022/12/13 06:14:47;;;;;;;21.37;14.40;;;-5.00;99.90;;;;;;5025626;28;20210;-68
2022/12/13 06:17:13;;;;;;;28.90;15.87;;;-4.60;99.90;;;;;;5022816;28;20278;-67
2022/12/13 06:19:38;;;;;;;23.37;13.23;;;-4.70;99.90;;;;;;5024543;28;20218;-66
2022/12/13 06:22:04;;;;;;;26.40;15.80;;;-5.30;99.90;;;;;;5023947;28;20457;-67
2022/12/13 06:24:30;;;;;;;25.40;15.50;;;-4.70;99.90;;;;;;5022947;28;20289;-67
2022/12/13 06:26:55;;;;;;;22.93;13.70;;;-4.60;99.90;;;;;;5024616;28;20230;-66
2022/12/13 06:29:22;;;;;;;21.43;13.27;;;-4.70;99.90;;;;;;5030355;28;20207;-68
2022/12/13 06:31:57;;;;;;;24.83;14.73;;;-4.50;99.90;;;;;;5020585;28;20278;-68
2022/12/13 06:34:23;;;;;;;22.38;14.73;;;-4.50;99.90;;;;;;5025269;28;20523;-68
2022/12/13 06:36:49;;;;;;;21.00;14.23;;;-4.80;99.90;;;;;;5021154;28;20208;-66
2022/12/13 06:39:15;;;;;;;26.00;15.53;;;-4.80;99.90;;;;;;5017568;28;20274;-66
2022/12/13 06:41:41;;;;;;;24.40;15.70;;;-4.70;99.90;;;;;;5026108;28;20187;-67
2022/12/13 06:44:06;;;;;;;24.40;16.47;;;-4.70;99.90;;;;;;5028067;28;20187;-66
2022/12/13 06:46:32;;;;;;;22.90;14.20;;;-4.40;99.90;;;;;;5021057;28;21049;-66
2022/12/13 06:48:59;;;;;;;23.25;14.95;;;-4.50;99.90;;;;;;5021537;28;20266;-67
2022/12/13 06:51:25;;;;;;;22.70;14.50;;;-4.50;99.90;;;;;;5025932;28;20179;-67
2022/12/13 06:53:50;;;;;;;21.58;15.90;;;-4.40;99.90;;;;;;5029307;28;20678;-68
2022/12/13 06:56:17;;;;;;;22.03;14.73;;;-4.90;99.90;;;;;;5021501;28;20199;-68
2022/12/13 06:58:43;;;;;;;22.33;14.43;;;-4.60;99.90;;;;;;5021828;28;20199;-67
2022/12/13 07:01:14;;;;;;;22.13;14.70;;;-4.60;99.90;;;;;;5022490;28;20561;-63
2022/12/13 07:03:40;;;;;;;27.80;17.67;;;-4.50;99.90;;;;;;5019833;28;20736;-65
2022/12/13 07:06:10;;;;;;;23.45;15.98;;;-4.40;99.90;;;;;;5020665;28;20292;-65
2022/12/13 07:08:36;;;;;;;29.52;14.02;;;-4.70;99.90;;;;;;5021022;28;20371;-65
2022/12/13 07:11:03;;;;;;;22.70;13.95;;;-4.60;99.90;;;;;;5028587;28;20206;-65
2022/12/13 07:13:29;;;;;;;23.60;15.50;;;-4.40;99.90;;;;;;5022073;28;20196;-65
2022/12/13 07:15:55;;;;;;;24.85;16.05;;;-4.60;99.90;;;;;;5016031;28;20547;-63
2022/12/13 07:18:21;;;;;;;25.10;16.07;;;-4.50;99.90;;;;;;5027367;28;20273;-63
2022/12/13 07:20:47;;;;;;;24.90;14.97;;;-5.10;99.90;;;;;;5023996;28;20453;-64
2022/12/13 07:23:13;;;;;;;23.13;15.37;;;-4.40;99.90;;;;;;5023265;28;20986;-64
2022/12/13 07:25:39;;;;;;;24.48;14.90;;;-4.50;99.90;;;;;;5018863;28;20471;-64
2022/12/13 07:28:07;;;;;;;20.05;14.13;;;-4.30;99.90;;;;;;5018336;28;20182;-65
2022/12/13 07:30:37;;;;;;;22.52;14.13;;;-4.20;99.90;;;;;;5023529;28;20200;-63
2022/12/13 07:33:04;;;;;;;24.67;15.15;;;-4.20;99.90;;;;;;5019603;28;20190;-63
2022/12/13 07:35:31;;;;;;;35.72;16.00;;;-5.00;99.90;;;;;;5015671;28;20215;-64
2022/12/13 07:37:57;;;;;;;33.67;16.65;;;-3.90;99.90;;;;;;5016550;28;20179;-64
2022/12/13 07:40:24;;;;;;;22.55;15.30;;;-4.90;99.90;;;;;;5021414;28;20516;-65
2022/12/13 07:42:50;;;;;;;24.13;17.13;;;-4.00;99.90;;;;;;5019694;28;20210;-67
2022/12/13 07:45:16;;;;;;;23.50;15.35;;;-4.10;99.90;;;;;;5020164;28;20210;-67
2022/12/13 07:47:42;;;;;;;25.63;15.73;;;-3.40;99.90;;;;;;5023180;28;20504;-68
2022/12/13 07:50:08;;;;;;;22.50;16.20;;;-3.90;99.90;;;;;;5023157;28;20222;-66
2022/12/13 07:52:34;;;;;;;20.30;13.68;;;-4.10;99.90;;;;;;5021126;28;20195;-68
2022/12/13 07:54:59;;;;;;;23.03;14.80;;;-3.50;99.90;;;;;;5016681;28;20205;-67
2022/12/13 07:57:25;;;;;;;22.10;14.33;;;-3.80;99.90;;;;;;5018031;28;20595;-67
2022/12/13 07:59:51;;;;;;;21.87;14.17;;;-3.80;99.90;;;;;;5015862;28;20182;-64
2022/12/13 08:02:16;;;;;;;22.20;14.17;;;-3.80;99.90;;;;;;5013877;28;20856;-64
2022/12/13 08:04:42;;;;;;;21.97;14.57;;;-3.80;99.90;;;;;;5019700;28;20207;-64
2022/12/13 08:07:09;;;;;;;23.13;15.00;;;-3.90;99.90;;;;;;5014178;28;20840;-65
2022/12/13 08:09:35;;;;;;;28.25;17.30;;;-3.90;99.90;;;;;;5023958;28;20210;-65
2022/12/13 08:12:00;;;;;;;25.48;16.85;;;-3.90;99.90;;;;;;5020052;28;20605;-65
2022/12/13 08:14:27;;;;;;;19.53;14.13;;;-3.90;99.90;;;;;;5017828;28;20248;-65
2022/12/13 08:16:53;;;;;;;24.13;16.20;;;-3.80;99.90;;;;;;5022379;28;20266;-66
2022/12/13 08:19:19;;;;;;;21.23;14.25;;;;;;;;;;5026595;28;20194;-64
2022/12/13 08:21:45;;;;;;;21.00;14.32;;;-3.50;99.90;;;;;;5021323;28;20229;-65
2022/12/13 08:24:13;;;;;;;24.97;14.80;;;-3.60;99.90;;;;;;5021414;28;20596;-67
2022/12/13 08:26:39;;;;;;;32.67;15.63;;;-3.50;99.90;;;;;;5019375;28;21046;-63
2022/12/13 08:29:04;;;;;;;19.60;14.90;;;-4.00;99.90;;;;;;5013301;28;20207;-63
2022/12/13 08:31:30;;;;;;;20.07;13.97;;;-3.60;99.90;;;;;;5018354;28;20183;-63
2022/12/13 08:34:00;;;;;;;21.43;14.10;;;-3.50;99.90;;;;;;5018290;28;20207;-63
2022/12/13 08:36:25;;;;;;;29.73;15.38;;;-3.50;99.90;;;;;;5020320;28;20497;-66
2022/12/13 08:38:54;;;;;;;24.17;15.03;;;-3.40;99.90;;;;;;5017673;28;20222;-65
2022/12/13 08:41:20;;;;;;;18.65;14.18;;;-3.20;99.90;;;;;;5019928;28;20183;-64
2022/12/13 08:43:47;;;;;;;26.93;15.23;;;-3.60;99.90;;;;;;5019129;28;20668;-64
2022/12/13 08:46:13;;;;;;;23.08;15.63;;;-2.80;99.90;;;;;;5019482;28;20711;-62
2022/12/13 08:48:39;;;;;;;21.37;14.57;;;-2.60;99.90;;;;;;5021275;28;20409;-65
2022/12/13 08:51:08;;;;;;;20.55;14.43;;;-2.70;99.90;;;;;;5025240;28;20434;-65
2022/12/13 08:53:34;;;;;;;22.45;14.80;;;-2.40;99.90;;;;;;5017251;28;20216;-64
2022/12/13 08:56:06;;;;;;;20.48;14.93;;;-2.30;99.90;;;;;;5027695;28;20202;-64
2022/12/13 08:58:32;;;;;;;19.60;14.48;;;-2.20;99.90;;;;;;5023254;28;20637;-66
2022/12/13 09:00:58;;;;;;;20.88;13.40;;;-2.30;99.90;;;;;;5029246;28;20191;-62
2022/12/13 09:03:24;;;;;;;22.73;15.53;;;-2.30;99.90;;;;;;5017464;28;20660;-64
2022/12/13 09:05:49;;;;;;;21.53;14.20;;;-2.30;99.90;;;;;;5022335;28;20484;-68
2022/12/13 09:08:16;;;;;;;20.40;12.90;;;-2.00;99.90;;;;;;5019939;28;20211;-69
2022/12/13 09:10:41;;;;;;;22.67;13.95;;;-2.00;99.90;;;;;;5020330;28;20184;-68
2022/12/13 09:13:07;;;;;;;22.40;15.20;;;-1.20;99.90;;;;;;5021774;28;20197;-68
2022/12/13 09:15:32;;;;;;;20.17;13.00;;;-1.60;99.90;;;;;;5015416;28;20205;-68
2022/12/13 09:17:58;;;;;;;20.07;13.20;;;-1.50;99.90;;;;;;5017808;28;20706;-68
2022/12/13 09:20:24;;;;;;;25.93;13.60;;;-2.00;99.90;;;;;;5029413;28;20233;-69
2022/12/13 09:22:50;;;;;;;15.83;12.57;;;-1.70;99.90;;;;;;5024384;28;20292;-68
2022/12/13 09:25:16;;;;;;;17.27;11.53;;;-1.30;99.90;;;;;;5025141;28;20211;-67
2022/12/13 09:27:42;;;;;;;16.52;11.98;;;-0.50;99.90;;;;;;5028262;28;20453;-68
2022/12/13 09:30:12;;;;;;;16.88;12.15;;;-0.50;99.10;;;;;;5027178;28;20221;-68
2022/12/13 09:32:39;;;;;;;15.88;11.93;;;-0.20;98.80;;;;;;5023665;28;20178;-67
2022/12/13 09:35:06;;;;;;;21.95;12.68;;;0.10;97.80;;;;;;5027943;28;20221;-68
2022/12/13 09:37:33;;;;;;;20.33;13.13;;;0.30;97.10;;;;;;5023194;28;20197;-67
2022/12/13 09:39:59;;;;;;;17.65;11.90;;;0.10;97.00;;;;;;5026728;28;20273;-69
2022/12/13 09:42:28;;;;;;;19.83;13.00;;;0.30;97.30;;;;;;5016447;28;20614;-69
2022/12/13 09:45:00;;;;;;;16.17;11.48;;;0.20;97.00;;;;;;5021784;28;20966;-69
2022/12/13 09:47:38;;;;;;;19.05;10.52;;;0.00;96.90;;;;;;5022136;28;20499;-67
2022/12/13 09:50:13;;;;;;;22.95;11.90;;;0.60;97.10;;;;;;5039896;28;20203;-68
2022/12/13 09:52:41;;;;;;;20.83;12.27;;;0.40;96.40;;;;;;5023936;28;20248;-68
2022/12/13 09:55:31;;;;;;;17.92;11.57;;;0.50;96.00;;;;;;5021144;28;20292;-68
2022/12/13 09:57:59;;;;;;;16.52;11.07;;;0.60;95.80;;;;;;5038257;28;20191;-69
2022/12/13 10:00:34;;;;;;;16.95;11.45;;;1.30;95.60;;;;;;5017630;28;20191;-69
2022/12/13 10:03:00;;;;;;;17.95;11.45;;;0.70;94.80;;;;;;5015958;28;20278;-67
2022/12/13 10:05:36;;;;;;;19.20;11.10;;;1.40;94.60;;;;;;5019661;28;20585;-68
2022/12/13 10:08:26;;;;;;;17.25;12.05;;;1.30;93.60;;;;;;5023641;28;20240;-67
2022/12/13 10:10:54;;;;;;;14.32;10.95;;;1.10;93.30;;;;;;5027931;28;20190;-64
2022/12/13 10:13:35;;;;;;;15.65;11.40;;;1.20;93.30;;;;;;5024098;28;20174;-67
2022/12/13 10:16:07;;;;;;;17.30;9.77;;;1.40;93.50;;;;;;5023933;28;20201;-70
2022/12/13 10:18:37;;;;;;;12.70;10.40;;;1.60;92.90;;;;;;5019893;28;20209;-68
2022/12/13 10:21:43;;;;;;;16.23;11.35;;;1.50;92.70;;;;;;5019609;28;20559;-69
2022/12/13 10:24:15;;;;;;;14.80;9.65;;;1.90;92.30;;;;;;5018816;28;20191;-69
2022/12/13 10:26:40;;;;;;;18.33;11.63;;;1.90;92.40;;;;;;5025954;28;20183;-70
2022/12/13 10:29:07;;;;;;;16.20;11.80;;;1.70;91.80;;;;;;5024417;28;20202;-70
2022/12/13 10:31:45;;;;;;;16.13;11.95;;;1.80;92.10;;;;;;5019027;28;20468;-67
2022/12/13 10:34:23;;;;;;;14.30;10.70;;;2.00;91.60;;;;;;5038279;28;20201;-70
2022/12/13 10:36:50;;;;;;;19.02;10.60;;;1.60;91.70;;;;;;5019842;28;20668;-68
2022/12/13 10:39:19;;;;;;;17.20;10.73;;;2.00;91.30;;;;;;5024498;28;20236;-67
2022/12/13 10:41:46;;;;;;;16.13;11.98;;;2.40;90.80;;;;;;5019522;28;20273;-66
2022/12/13 10:44:22;;;;;;;16.83;12.45;;;2.10;91.10;;;;;;5017668;28;20194;-67
2022/12/13 10:46:52;;;;;;;14.48;10.70;;;2.30;91.60;;;;;;5021722;28;20293;-68
2022/12/13 10:49:23;;;;;;;15.35;10.80;;;2.40;91.10;;;;;;5018741;28;20208;-70
2022/12/13 10:51:50;;;;;;;20.65;12.40;;;2.20;91.00;;;;;;5021588;28;20265;-67
2022/12/13 10:54:29;;;;;;;16.00;11.55;;;2.00;91.30;;;;;;5023178;28;20186;-67
2022/12/13 10:56:59;;;;;;;15.63;11.82;;;1.40;91.00;;;;;;5024981;28;20258;-68
2022/12/13 10:59:33;;;;;;;17.05;10.95;;;2.20;91.40;;;;;;5023946;28;20188;-71
2022/12/13 11:02:02;;;;;;;16.60;10.18;;;2.10;91.00;;;;;;5016631;28;20197;-70
2022/12/13 11:04:33;;;;;;;22.00;14.70;;;2.20;90.00;;;;;;5019194;28;20233;-69
2022/12/13 11:07:19;;;;;;;17.35;11.20;;;2.40;90.80;;;;;;5020877;28;20194;-68
2022/12/13 11:09:45;;;;;;;17.13;11.23;;;1.80;90.50;;;;;;5022776;28;20214;-65
2022/12/13 11:12:15;;;;;;;20.67;14.50;;;2.80;91.10;;;;;;5024341;28;20186;-65
2022/12/13 11:15:09;;;;;;;19.77;14.48;;;2.50;90.80;;;;;;5019933;28;20496;-62
2022/12/13 11:17:44;;;;;;;16.90;10.98;;;2.50;90.60;;;;;;5019137;28;20195;-65
2022/12/13 11:20:26;;;;;;;15.48;10.77;;;2.70;90.90;;;;;;5024486;28;20246;-65
2022/12/13 11:23:08;;;;;;;22.60;11.85;;;2.20;91.10;;;;;;5020293;28;20260;-66
2022/12/13 11:25:42;;;;;;;22.38;11.80;;;2.10;91.00;;;;;;5023101;28;20213;-65
2022/12/13 11:28:48;;;;;;;20.27;10.48;;;2.10;91.10;;;;;;5018790;28;20265;-66
2022/12/13 11:32:01;;;;;;;14.80;10.65;;;2.10;91.00;;;;;;5026643;28;20245;-65
2022/12/13 11:34:27;;;;;;;15.90;10.40;;;2.00;90.60;;;;;;5012997;28;20638;-65
2022/12/13 11:37:03;;;;;;;11.67;9.03;;;2.00;91.10;;;;;;5022619;28;20301;-65
2022/12/13 11:39:37;;;;;;;16.08;10.38;;;2.20;90.60;;;;;;5029231;28;20192;-65
2022/12/13 11:42:14;;;;;;;16.60;10.55;;;2.30;91.10;;;;;;5026617;28;20218;-65
2022/12/13 11:45:11;;;;;;;13.18;10.32;;;2.20;91.10;;;;;;5029647;28;20710;-66
2022/12/13 11:47:57;;;;;;;14.60;10.15;;;2.10;90.80;;;;;;5030915;28;20198;-66
2022/12/13 11:50:48;;;;;;;11.32;8.90;;;2.10;90.80;;;;;;5028452;28;20202;-65
2022/12/13 11:53:45;;;;;;;15.57;8.88;;;2.00;90.60;;;;;;5020136;28;20257;-66
2022/12/13 11:56:52;;;;;;;12.88;9.80;;;1.90;90.70;;;;;;5019174;28;20195;-66
2022/12/13 11:59:38;;;;;;;17.80;10.05;;;1.90;90.90;;;;;;5017563;28;20190;-66
2022/12/13 12:02:48;;;;;;;18.90;11.27;;;2.20;91.10;;;;;;5032242;28;20213;-65
2022/12/13 12:05:31;;;;;;;15.20;10.98;;;2.00;91.40;;;;;;5028310;28;20228;-64
2022/12/13 12:08:05;;;;;;;19.63;11.07;;;2.00;91.60;;;;;;5025242;28;20198;-65
2022/12/13 12:10:40;;;;;;;16.10;9.90;;;1.90;91.70;;;;;;5023148;28;20297;-65
2022/12/13 12:13:38;;;;;;;15.88;10.18;;;1.90;91.30;;;;;;5022047;28;20183;-65
2022/12/13 12:16:23;;;;;;;14.65;10.57;;;2.00;91.30;;;;;;5021604;28;20585;-66
2022/12/13 12:18:50;;;;;;;19.77;10.05;;;2.10;91.70;;;;;;5025479;28;20195;-65
2022/12/13 12:21:35;;;;;;;15.38;9.95;;;2.00;91.00;;;;;;5026285;28;20786;-67
2022/12/13 12:24:10;;;;;;;16.00;9.98;;;2.00;90.90;;;;;;5025538;28;20214;-65
2022/12/13 12:27:11;;;;;;;17.98;9.82;;;1.80;91.30;;;;;;5026870;28;20221;-65
2022/12/13 12:29:52;;;;;;;14.65;9.40;;;1.80;91.90;;;;;;5023821;28;20209;-66
2022/12/13 12:32:39;;;;;;;18.30;12.10;;;1.80;91.50;;;;;;5029704;28;20186;-65
2022/12/13 12:35:26;;;;;;;15.15;9.57;;;2.10;91.80;;;;;;5029387;28;20202;-65
2022/12/13 12:38:06;;;;;;;15.63;10.27;;;2.10;91.90;;;;;;5020522;28;20183;-66
2022/12/13 12:40:56;;;;;;;14.68;10.55;;;1.90;92.00;;;;;;5028249;28;20224;-66
2022/12/13 12:43:32;;;;;;;16.27;9.95;;;1.90;91.60;;;;;;5028689;28;20190;-65
2022/12/13 12:46:20;;;;;;;15.10;10.57;;;2.10;92.00;;;;;;5024842;28;20649;-66
2022/12/13 12:49:04;;;;;;;15.02;10.38;;;1.80;92.20;;;;;;5030600;28;20562;-66
2022/12/13 12:51:51;;;;;;;15.02;9.90;;;2.00;92.40;;;;;;5026730;28;20644;-66
2022/12/13 12:54:47;;;;;;;24.15;17.05;;;1.80;91.90;;;;;;5042299;28;20187;-66